Time;durP1;ratioP1;P1;durP2;ratioP2;P2;SDS_P1;SDS_P2;PMS_P1;PMS_P2;Temp;Humidity;BMP_temperature;BMP_pressure;BME280_temperature;BME280_humidity;BME280_pressure;Samples;Min_cycle;Max_cycle;Signal;HPM_P1;HPM_P2
2022/07/07 00:00:15;;;;;;;5.55;4.80;;;;;;;18.43;100.00;99887.05;1737806;82;21034;-70
2022/07/07 00:02:42;;;;;;;5.92;4.70;;;;;;;18.36;100.00;99881.31;1733785;82;21144;-70
2022/07/07 00:05:08;;;;;;;9.58;4.47;;;;;;;18.32;100.00;99880.32;1733959;82;21617;-70
2022/07/07 00:07:35;;;;;;;6.60;4.10;;;;;;;18.24;100.00;99860.87;1733760;82;21125;-70
2022/07/07 00:10:02;;;;;;;6.20;3.85;;;;;;;18.17;100.00;99863.62;1733747;82;21507;-70
2022/07/07 00:12:29;;;;;;;5.22;3.47;;;;;;;18.12;100.00;99867.10;1733926;82;21049;-71
2022/07/07 00:14:56;;;;;;;4.58;3.90;;;;;;;18.07;100.00;99866.59;1733873;82;21112;-71
2022/07/07 00:17:23;;;;;;;7.90;3.42;;;;;;;18.01;100.00;99874.53;1733832;82;21070;-70
2022/07/07 00:19:50;;;;;;;6.30;3.85;;;;;;;17.96;100.00;99882.01;1733913;82;21053;-70
2022/07/07 00:22:17;;;;;;;4.05;3.25;;;;;;;17.90;100.00;99881.11;1733689;82;21136;-70
2022/07/07 00:24:43;;;;;;;3.92;3.40;;;;;;;17.87;100.00;99884.00;1733576;82;21059;-71
2022/07/07 00:27:10;;;;;;;5.90;3.30;;;;;;;17.83;100.00;99878.06;1733773;82;21097;-69
2022/07/07 00:29:37;;;;;;;9.23;3.90;;;;;;;17.78;100.00;99881.02;1733813;82;21105;-70
2022/07/07 00:32:04;;;;;;;4.28;2.90;;;;;;;17.73;100.00;99876.47;1734875;81;21703;-70
2022/07/07 00:34:31;;;;;;;4.50;3.80;;;;;;;17.67;100.00;99880.92;1735277;82;21144;-70
2022/07/07 00:36:57;;;;;;;4.60;3.83;;;;;;;17.63;100.00;99882.09;1735234;82;21054;-69
2022/07/07 00:39:25;;;;;;;4.12;3.50;;;;;;;17.59;100.00;99884.58;1735291;82;21112;-68
2022/07/07 00:41:52;;;;;;;5.55;4.33;;;;;;;17.56;100.00;99871.50;1735915;82;21010;-69
2022/07/07 00:44:18;;;;;;;6.12;3.60;;;;;;;17.56;100.00;99870.17;1735524;82;21093;-70
2022/07/07 00:46:47;;;;;;;8.10;3.80;;;;;;;17.55;100.00;99876.44;1735841;82;21092;-68
2022/07/07 00:49:14;;;;;;;7.85;4.00;;;;;;;17.56;100.00;99872.83;1735700;82;21058;-71
2022/07/07 00:51:42;;;;;;;4.97;3.95;;;;;;;17.55;100.00;99873.77;1735651;82;21048;-69
2022/07/07 00:54:09;;;;;;;8.10;4.30;;;;;;;17.54;100.00;99873.41;1721362;82;21038;-70
2022/07/07 00:56:38;;;;;;;14.60;4.35;;;;;;;17.51;100.00;99873.64;1714906;81;21097;-69
2022/07/07 00:59:08;;;;;;;4.58;4.15;;;;;;;17.48;100.00;99876.49;1706078;84;21076;-69
2022/07/07 01:01:38;;;;;;;6.25;3.95;;;;;;;17.44;100.00;99869.67;1706234;84;21069;-69
2022/07/07 01:04:09;;;;;;;5.33;3.83;;;;;;;17.36;100.00;99861.75;1706604;84;21548;-69
2022/07/07 01:06:36;;;;;;;6.90;3.70;;;;;;;17.31;100.00;99869.20;1706672;84;21033;-70
2022/07/07 01:09:03;;;;;;;7.83;4.10;;;;;;;17.28;100.00;99872.58;1706140;84;21073;-70
2022/07/07 01:11:57;;;;;;;6.83;3.52;;;;;;;17.27;100.00;99869.03;1706164;84;21201;-69
2022/07/07 01:14:24;;;;;;;8.98;3.72;;;;;;;17.25;100.00;99873.61;1706102;84;21076;-69
2022/07/07 01:16:52;;;;;;;7.05;3.52;;;;;;;17.20;100.00;99874.41;1706353;84;21179;-69
2022/07/07 01:19:20;;;;;;;4.45;3.10;;;;;;;17.16;100.00;99875.57;1706086;84;21074;-70
2022/07/07 01:22:03;;;;;;;6.22;3.10;;;;;;;17.15;100.00;99875.21;1705841;84;21151;-69
2022/07/07 01:24:30;;;;;;;6.08;2.75;;;;;;;17.15;100.00;99879.20;1706152;84;21522;-69
2022/07/07 01:27:10;;;;;;;8.50;2.87;;;;;;;17.13;100.00;99886.44;1706254;84;21136;-69
2022/07/07 01:29:40;;;;;;;4.45;3.10;;;;;;;17.09;100.00;99882.27;1706165;84;21093;-72
2022/07/07 01:32:08;;;;;;;;;;;;;;;17.03;100.00;99896.86;1708766;84;21084;-69
2022/07/07 01:34:36;;;;;;;4.15;2.72;;;;;;;17.03;100.00;99888.03;1706133;84;20215;-69
2022/07/07 01:37:04;;;;;;;2.87;2.00;;;;;;;16.96;100.00;99889.77;1705965;84;21709;-72
2022/07/07 01:39:33;;;;;;;3.40;2.08;;;;;;;16.91;100.00;99897.66;1706348;84;21599;-69
2022/07/07 01:42:00;;;;;;;7.35;1.90;;;;;;;16.89;100.00;99893.80;1706062;84;22095;-69
2022/07/07 01:44:26;;;;;;;5.83;2.10;;;;;;;16.89;100.00;99903.11;1718211;82;21112;-70
2022/07/07 01:46:53;;;;;;;5.87;2.00;;;;;;;16.87;100.00;99898.84;1735155;82;21552;-70
2022/07/07 01:49:19;;;;;;;3.92;2.00;;;;;;;16.88;100.00;99908.03;1735628;82;21074;-70
2022/07/07 01:51:48;;;;;;;2.35;1.70;;;;;;;16.85;100.00;99910.91;1735249;82;21053;-69
2022/07/07 01:54:14;;;;;;;7.28;2.10;;;;;;;16.87;100.00;99923.63;1720890;82;21046;-70
2022/07/07 01:56:40;;;;;;;4.62;2.35;;;;;;;16.85;100.00;99926.86;1715060;83;21034;-70
2022/07/07 01:59:08;;;;;;;4.40;1.98;;;;;;;16.85;100.00;99924.20;1715344;83;21097;-69
2022/07/07 02:01:36;;;;;;;5.72;2.05;;;;;;;16.83;100.00;99928.77;1749297;81;21107;-70
2022/07/07 02:04:03;;;;;;;6.40;2.10;;;;;;;16.84;100.00;99927.83;1753934;81;21648;-69
2022/07/07 02:06:30;;;;;;;6.35;2.10;;;;;;;16.83;100.00;99940.73;1753936;81;21045;-70
2022/07/07 02:08:56;;;;;;;5.65;2.35;;;;;;;16.84;100.00;99941.13;1754440;81;21096;-70
2022/07/07 02:11:23;;;;;;;7.80;2.42;;;;;;;16.82;100.00;99952.34;1754176;81;20994;-70
2022/07/07 02:13:51;;;;;;;4.67;2.17;;;;;;;16.82;100.00;99949.68;1754223;81;21127;-70
2022/07/07 02:16:22;;;;;;;5.90;1.70;;;;;;;16.78;100.00;99946.81;1753884;81;20986;-70
2022/07/07 02:18:54;;;;;;;3.17;1.55;;;;;;;16.72;100.00;99948.53;1754144;81;21049;-69
2022/07/07 02:21:21;;;;;;;3.17;2.00;;;;;;;16.68;100.00;99954.54;1725950;81;21029;-69
2022/07/07 02:23:49;;;;;;;2.90;1.70;;;;;;;16.66;100.00;99947.63;1753965;81;21060;-71
2022/07/07 02:26:16;;;;;;;3.45;1.70;;;;;;;16.65;100.00;99941.91;1754301;81;21102;-71
2022/07/07 02:28:42;;;;;;;5.92;1.45;;;;;;;16.67;100.00;99949.31;1753864;81;21044;-69
2022/07/07 02:31:09;;;;;;;2.47;1.40;;;;;;;16.65;100.00;99941.42;1754061;81;21093;-70
2022/07/07 02:33:36;;;;;;;3.22;1.77;;;;;;;16.67;100.00;99946.66;1753972;81;21081;-70
2022/07/07 02:36:05;;;;;;;1.37;1.12;;;;;;;16.70;100.00;99939.80;1754212;81;21092;-70
2022/07/07 02:38:32;;;;;;;3.95;1.55;;;;;;;16.72;100.00;99940.55;1754170;81;21207;-71
2022/07/07 02:40:59;;;;;;;2.75;1.60;;;;;;;16.68;100.00;99947.89;1754312;81;21596;-70
2022/07/07 02:43:26;;;;;;;2.45;1.32;;;;;;;16.68;100.00;99947.02;1754044;81;21694;-69
2022/07/07 02:45:53;;;;;;;2.95;1.15;;;;;;;16.70;100.00;99949.10;1753950;81;21080;-71
2022/07/07 02:48:22;;;;;;;2.12;1.20;;;;;;;16.72;100.00;99956.51;1754341;81;21028;-71
2022/07/07 02:50:48;;;;;;;2.40;1.27;;;;;;;16.71;100.00;99961.46;1753970;81;21827;-71
2022/07/07 02:53:15;;;;;;;2.90;1.50;;;;;;;16.73;100.00;99967.05;1754075;81;21068;-70
2022/07/07 02:55:42;;;;;;;1.47;1.00;;;;;;;16.69;100.00;99968.20;1754144;81;21334;-73
2022/07/07 02:58:11;;;;;;;2.40;1.40;;;;;;;16.65;100.00;99974.66;1753896;81;21025;-71
2022/07/07 03:00:39;;;;;;;4.05;1.05;;;;;;;16.62;100.00;99976.20;1751169;81;21579;-71
2022/07/07 03:03:10;;;;;;;2.95;1.30;;;;;;;16.59;100.00;99973.75;1746304;82;21062;-72
2022/07/07 03:05:37;;;;;;;2.52;1.12;;;;;;;16.60;100.00;99978.58;1746193;82;21037;-71
2022/07/07 03:08:04;;;;;;;1.42;1.00;;;;;;;16.60;100.00;99968.80;1746034;82;22204;-71
2022/07/07 03:10:31;;;;;;;3.85;1.10;;;;;;;16.62;100.00;99972.21;1746077;82;21601;-72
2022/07/07 03:12:58;;;;;;;1.40;1.00;;;;;;;16.64;100.00;99970.80;1745809;82;21101;-72
2022/07/07 03:15:25;;;;;;;3.00;1.00;;;;;;;16.63;100.00;99973.91;1746039;82;21061;-71
2022/07/07 03:17:52;;;;;;;4.00;1.20;;;;;;;16.62;100.00;99976.68;1745976;82;22094;-71
2022/07/07 03:20:19;;;;;;;4.20;1.20;;;;;;;16.61;100.00;99970.97;1746119;82;21083;-71
2022/07/07 03:22:46;;;;;;;4.75;0.90;;;;;;;16.58;100.00;99972.88;1746138;82;21049;-72
2022/07/07 03:25:12;;;;;;;1.40;1.10;;;;;;;16.55;100.00;99973.08;1746130;82;21097;-71
2022/07/07 03:27:39;;;;;;;2.00;1.27;;;;;;;16.55;100.00;99966.44;1745778;82;21116;-71
2022/07/07 03:30:08;;;;;;;3.45;1.47;;;;;;;16.54;100.00;99972.72;1745668;82;21088;-71
2022/07/07 03:32:36;;;;;;;1.22;1.00;;;;;;;16.49;100.00;99980.11;1745970;82;21033;-71
2022/07/07 03:35:03;;;;;;;2.87;1.30;;;;;;;16.47;100.00;99979.38;1746430;82;21092;-72
2022/07/07 03:37:32;;;;;;;5.53;1.30;;;;;;;16.46;100.00;99982.97;1746200;82;20990;-72
2022/07/07 03:39:59;;;;;;;1.90;1.20;;;;;;;16.41;100.00;99987.73;1746202;82;22243;-72
2022/07/07 03:42:25;;;;;;;5.90;1.50;;;;;;;16.41;100.00;99986.41;1746064;82;21045;-71
2022/07/07 03:44:52;;;;;;;1.55;1.10;;;;;;;16.41;100.00;99981.57;1746019;82;21502;-71
2022/07/07 03:47:18;;;;;;;3.52;1.12;;;;;;;16.39;100.00;99980.33;1743726;80;21064;-72
2022/07/07 03:49:45;;;;;;;4.30;1.82;;;;;;;16.41;100.00;99973.60;1717455;82;21603;-72
2022/07/07 03:52:12;;;;;;;7.33;1.75;;;;;;;16.42;100.00;99973.48;1716014;83;21151;-71
2022/07/07 03:54:39;;;;;;;3.37;1.37;;;;;;;16.43;100.00;99965.91;1741535;82;21077;-71
2022/07/07 03:57:05;;;;;;;2.20;1.25;;;;;;;16.42;100.00;99966.84;1744566;82;21026;-71
2022/07/07 03:59:33;;;;;;;1.20;1.10;;;;;;;16.45;100.00;99967.98;1744257;82;21526;-71
2022/07/07 04:01:59;;;;;;;3.33;1.20;;;;;;;16.49;100.00;99969.47;1736468;82;21057;-71
2022/07/07 04:04:26;;;;;;;1.80;1.30;;;;;;;16.50;100.00;99970.35;1735272;82;21760;-71
2022/07/07 04:06:53;;;;;;;5.40;1.20;;;;;;;16.55;100.00;99966.92;1735344;82;21097;-72
2022/07/07 04:09:19;;;;;;;4.90;2.02;;;;;;;16.60;100.00;99982.57;1735446;82;21632;-72
2022/07/07 04:11:46;;;;;;;3.58;1.50;;;;;;;16.61;100.00;99983.81;1735297;82;21092;-71
2022/07/07 04:14:13;;;;;;;5.80;1.45;;;;;;;16.66;100.00;99988.83;1735082;82;21692;-72
2022/07/07 04:16:39;;;;;;;4.37;1.57;;;;;;;16.69;100.00;99993.94;1735161;82;21137;-71
2022/07/07 04:19:07;;;;;;;2.62;1.70;;;;;;;16.68;100.00;100005.52;1735500;82;21073;-71
2022/07/07 04:21:34;;;;;;;2.15;1.70;;;;;;;16.68;100.00;100005.52;1735271;82;21049;-71
2022/07/07 04:24:01;;;;;;;1.77;1.60;;;;;;;16.71;100.00;100008.84;1735417;82;21186;-71
2022/07/07 04:26:27;;;;;;;4.12;2.05;;;;;;;16.77;100.00;100015.10;1735511;82;21556;-71
2022/07/07 04:28:54;;;;;;;2.08;1.90;;;;;;;16.78;100.00;100018.61;1735477;82;21196;-71
2022/07/07 04:31:20;;;;;;;2.10;1.90;;;;;;;16.79;100.00;100019.00;1735335;82;21095;-71
2022/07/07 04:33:47;;;;;;;3.83;2.45;;;;;;;16.79;100.00;100016.34;1735531;82;21136;-72
2022/07/07 04:36:14;;;;;;;4.30;2.27;;;;;;;16.81;100.00;100019.77;1735468;82;21053;-71
2022/07/07 04:38:41;;;;;;;2.60;2.40;;;;;;;16.83;100.00;100024.51;1735601;82;21061;-71
2022/07/07 04:41:08;;;;;;;6.62;2.58;;;;;;;16.85;100.00;100023.94;1735413;82;21094;-71
2022/07/07 04:43:34;;;;;;;4.03;2.87;;;;;;;16.87;100.00;100022.03;1735366;82;21088;-71
2022/07/07 04:46:01;;;;;;;4.00;2.67;;;;;;;16.93;100.00;100026.09;1723737;81;21065;-70
2022/07/07 04:48:27;;;;;;;6.78;3.10;;;;;;;16.91;100.00;100031.53;1735908;82;22113;-71
2022/07/07 04:50:54;;;;;;;3.33;2.83;;;;;;;16.93;100.00;100030.95;1729282;82;21081;-73
2022/07/07 04:53:21;;;;;;;3.80;2.75;;;;;;;16.96;100.00;100032.08;1706946;84;21503;-71
2022/07/07 04:55:47;;;;;;;4.67;3.35;;;;;;;17.01;100.00;100032.26;1708643;84;21085;-71
2022/07/07 04:58:14;;;;;;;3.60;2.70;;;;;;;17.05;100.00;100031.11;1708454;84;21573;-72
2022/07/07 05:00:41;;;;;;;5.22;3.30;;;;;;;17.09;100.00;100025.94;1708276;83;21070;-72
2022/07/07 05:03:08;;;;;;;3.45;2.80;;;;;;;17.12;100.00;100021.77;1708695;84;21104;-71
2022/07/07 05:05:35;;;;;;;7.85;2.90;;;;;;;17.16;100.00;100022.80;1708328;84;21121;-72
2022/07/07 05:08:01;;;;;;;5.55;3.25;;;;;;;17.20;100.00;100023.43;1708415;84;21042;-71
2022/07/07 05:10:28;;;;;;;4.45;3.08;;;;;;;17.26;100.00;100028.36;1708452;84;21074;-72
2022/07/07 05:12:55;;;;;;;3.30;2.98;;;;;;;17.31;100.00;100030.71;1708283;84;21605;-71
2022/07/07 05:15:21;;;;;;;3.37;2.83;;;;;;;17.33;100.00;100033.64;1708332;84;21072;-72
2022/07/07 05:17:48;;;;;;;3.62;2.40;;;;;;;17.36;100.00;100033.42;1708531;84;21785;-71
2022/07/07 05:20:15;;;;;;;4.17;2.75;;;;;;;17.35;100.00;100029.08;1708105;84;21030;-73
2022/07/07 05:22:42;;;;;;;2.92;2.27;;;;;;;17.40;100.00;100030.09;1708613;84;21534;-72
2022/07/07 05:25:10;;;;;;;4.25;2.20;;;;;;;17.46;100.00;100038.13;1708302;84;21010;-71
2022/07/07 05:27:38;;;;;;;2.12;1.92;;;;;;;17.51;100.00;100045.36;1708149;84;21685;-72
2022/07/07 05:30:06;;;;;;;4.20;2.05;;;;;;;17.57;100.00;100052.91;1708234;84;21139;-71
2022/07/07 05:32:35;;;;;;;2.05;1.85;;;;;;;17.59;100.00;100055.00;1708419;84;21073;-72
2022/07/07 05:35:01;;;;;;;2.15;1.98;;;;;;;17.58;100.00;100053.30;1708410;84;21034;-71
2022/07/07 05:37:28;;;;;;;5.20;2.10;;;;;;;17.63;100.00;100055.17;1708383;84;21069;-71
2022/07/07 05:39:55;;;;;;;1.80;1.42;;;;;;;17.69;100.00;100059.22;1708485;84;21067;-71
2022/07/07 05:42:21;;;;;;;5.85;1.72;;;;;;;17.77;100.00;100063.08;1708264;84;21348;-69
2022/07/07 05:44:48;;;;;;;2.80;1.87;;;;;;;17.82;100.00;100059.64;1708645;84;21093;-72
2022/07/07 05:47:14;;;;;;;2.90;1.70;;;;;;;17.87;100.00;100056.66;1708415;84;21065;-71
2022/07/07 05:49:41;;;;;;;2.37;1.87;;;;;;;17.96;100.00;100050.70;1708558;81;21097;-71
2022/07/07 05:52:09;;;;;;;3.25;1.52;;;;;;;17.97;100.00;100050.25;1722551;81;21620;-72
2022/07/07 05:54:36;;;;;;;7.03;2.22;;;;;;;18.02;100.00;100046.78;1722520;81;21224;-71
2022/07/07 05:57:06;;;;;;;3.30;1.70;;;;;;;18.02;100.00;100056.11;1720715;82;21021;-72
2022/07/07 05:59:33;;;;;;;5.95;1.67;;;;;;;18.04;100.00;100052.86;1707858;81;21076;-72
2022/07/07 06:02:00;;;;;;;2.80;1.50;;;;;;;18.05;100.00;100049.70;1712816;81;21038;-72
2022/07/07 06:04:27;;;;;;;5.22;1.60;;;;;;;18.10;100.00;100053.74;1707406;82;21120;-74
2022/07/07 06:06:54;;;;;;;3.17;1.50;;;;;;;18.18;100.00;100052.74;1717627;82;21169;-71
2022/07/07 06:09:21;;;;;;;2.20;1.47;;;;;;;18.28;100.00;100058.77;1712222;81;21105;-71
2022/07/07 06:11:47;;;;;;;1.87;1.30;;;;;;;18.33;100.00;100061.95;1716869;82;21120;-71
2022/07/07 06:14:14;;;;;;;5.47;2.30;;;;;;;18.37;100.00;100060.29;1713460;81;21221;-72
2022/07/07 06:16:42;;;;;;;7.60;2.27;;;;;;;18.48;100.00;100066.21;1734269;82;21037;-71
2022/07/07 06:19:12;;;;;;;3.80;1.67;;;;;;;18.55;100.00;100070.14;1728095;82;21128;-72
2022/07/07 06:21:39;;;;;;;2.83;2.02;;;;;;;18.60;100.00;100070.66;1725033;82;21084;-71
2022/07/07 06:24:06;;;;;;;4.45;1.50;;;;;;;18.60;99.40;100068.48;1735137;82;21112;-72
2022/07/07 06:26:34;;;;;;;2.67;1.40;;;;;;;18.59;98.63;100072.13;1728750;82;21049;-70
2022/07/07 06:29:00;;;;;;;3.58;1.27;;;;;;;18.62;100.00;100071.41;1722027;82;21592;-72
2022/07/07 06:31:27;;;;;;;2.70;1.40;;;;;;;18.70;99.20;100084.67;1725426;81;21121;-72
2022/07/07 06:33:53;;;;;;;2.83;1.40;;;;;;;18.76;98.28;100090.42;1735517;82;21022;-71
2022/07/07 06:36:20;;;;;;;3.35;1.25;;;;;;;18.75;98.94;100101.19;1734183;82;21061;-72
2022/07/07 06:38:46;;;;;;;6.05;1.30;;;;;;;18.85;97.99;100103.62;1706147;84;21421;-72
2022/07/07 06:41:13;;;;;;;3.72;1.22;;;;;;;18.91;98.25;100105.86;1716651;82;21132;-72
2022/07/07 06:43:40;;;;;;;3.83;1.30;;;;;;;19.01;98.16;100110.88;1716239;82;21029;-71
2022/07/07 06:46:06;;;;;;;3.52;1.30;;;;;;;19.13;96.68;100112.30;1716521;81;21096;-72
2022/07/07 06:48:34;;;;;;;3.77;1.20;;;;;;;19.18;97.49;100110.13;1726036;81;22180;-72
2022/07/07 06:51:01;;;;;;;6.03;1.02;;;;;;;19.22;95.75;100107.62;1720166;81;21074;-72
2022/07/07 06:53:27;;;;;;;2.12;1.55;;;;;;;19.21;96.65;100111.23;1706160;81;21533;-72
2022/07/07 06:55:55;;;;;;;2.45;1.30;;;;;;;19.27;95.17;100106.78;1697800;84;21146;-71
2022/07/07 06:58:21;;;;;;;2.55;1.17;;;;;;;19.30;94.46;100105.22;1697853;84;21115;-72
2022/07/07 07:00:48;;;;;;;2.27;1.00;;;;;;;19.27;94.51;100108.13;1697692;84;21116;-72
2022/07/07 07:03:15;;;;;;;2.55;1.27;;;;;;;19.24;94.33;100109.70;1728182;82;21066;-71
2022/07/07 07:05:42;;;;;;;5.40;1.20;;;;;;;19.26;95.21;100110.44;1732125;82;21058;-73
2022/07/07 07:08:13;;;;;;;3.98;1.30;;;;;;;19.27;94.79;100106.78;1734125;80;21113;-72
2022/07/07 07:10:41;;;;;;;7.40;1.67;;;;;;;19.28;94.75;100101.84;1747173;80;21080;-72
2022/07/07 07:13:08;;;;;;;7.20;1.22;;;;;;;19.28;95.76;100103.17;1762439;81;21064;-72
2022/07/07 07:15:36;;;;;;;20.55;10.30;;;;;;;19.27;94.66;100106.78;1749503;80;21104;-71
2022/07/07 07:18:03;;;;;;;2.52;1.57;;;;;;;19.24;94.89;100107.02;1748900;80;21118;-72
2022/07/07 07:20:30;;;;;;;2.17;1.05;;;;;;;19.25;95.93;100106.05;1738211;80;21108;-71
2022/07/07 07:22:56;;;;;;;2.75;1.47;;;;;;;19.36;95.08;100105.27;1732100;80;21106;-72
2022/07/07 07:25:23;;;;;;;3.80;1.20;;;;;;;19.49;94.78;100105.58;1754545;80;21059;-71
2022/07/07 07:27:49;;;;;;;1.62;1.10;;;;;;;19.62;93.69;100105.98;1761489;81;21626;-71
2022/07/07 07:30:16;;;;;;;5.97;1.32;;;;;;;19.75;91.81;100113.48;1761711;81;21067;-70
2022/07/07 07:32:43;;;;;;;3.62;1.47;;;;;;;19.79;92.36;100116.29;1754400;80;21226;-71
2022/07/07 07:35:11;;;;;;;3.87;1.25;;;;;;;19.92;91.00;100120.20;1754515;81;21115;-71
2022/07/07 07:37:39;;;;;;;1.82;1.00;;;;;;;20.04;91.24;100119.28;1762874;81;21104;-72
2022/07/07 07:40:10;;;;;;;3.52;1.37;;;;;;;20.16;89.86;100126.00;1761518;80;21066;-72
2022/07/07 07:42:38;;;;;;;3.00;1.55;;;;;;;20.27;88.95;100124.19;1753835;81;21135;-71
2022/07/07 07:45:12;;;;;;;2.55;1.30;;;;;;;20.41;88.70;100124.95;1750561;80;21127;-72
2022/07/07 07:47:45;;;;;;;3.90;1.20;;;;;;;20.53;87.41;100126.65;1752749;81;21559;-71
2022/07/07 07:50:15;;;;;;;5.60;1.85;;;;;;;20.68;86.76;100124.60;1762394;81;21024;-73
2022/07/07 07:52:42;;;;;;;2.25;1.10;;;;;;;20.79;87.41;100125.09;1762623;81;21080;-73
2022/07/07 07:55:13;;;;;;;3.90;1.32;;;;;;;20.97;85.23;100127.64;1749345;80;21114;-71
2022/07/07 07:57:40;;;;;;;1.65;1.00;;;;;;;21.08;85.12;100122.27;1745601;81;21180;-71
2022/07/07 08:00:09;;;;;;;2.15;0.90;;;;;;;21.15;83.66;100123.47;1732475;82;21119;-71
2022/07/07 08:02:41;;;;;;;1.92;1.05;;;;;;;21.18;82.07;100128.22;1724949;80;21045;-71
2022/07/07 08:06:01;;;;;;;1.35;0.90;;;;;;;21.20;83.50;100124.93;1791324;79;22642;-72
2022/07/07 08:08:31;;;;;;;2.17;0.90;;;;;;;21.28;83.62;100125.13;1734429;80;21116;-72
2022/07/07 08:10:57;;;;;;;2.80;1.00;;;;;;;21.37;82.40;100129.73;1756386;81;21596;-71
2022/07/07 08:13:26;;;;;;;3.60;1.00;;;;;;;21.45;82.60;100127.33;1756219;81;21043;-73
2022/07/07 08:15:53;;;;;;;2.20;1.25;;;;;;;21.58;82.19;100134.72;1742175;80;21068;-73
2022/07/07 08:18:20;;;;;;;3.77;0.98;;;;;;;21.69;80.77;100134.30;1742550;81;21010;-72
2022/07/07 08:20:46;;;;;;;8.98;1.55;;;;;;;21.71;80.42;100138.55;1732204;81;21016;-72
2022/07/07 08:23:14;;;;;;;1.98;0.90;;;;;;;21.61;80.00;100139.46;1742915;80;21730;-72
2022/07/07 08:25:40;;;;;;;3.52;1.00;;;;;;;21.48;80.92;100133.76;1739850;81;21062;-73
2022/07/07 08:28:07;;;;;;;9.00;1.82;;;;;;;21.51;81.03;100140.69;1755964;81;20970;-73
2022/07/07 08:30:34;;;;;;;2.50;0.90;;;;;;;21.60;81.13;100140.42;1756422;81;21022;-71
2022/07/07 08:33:01;;;;;;;4.30;1.22;;;;;;;21.77;81.80;100145.23;1756105;81;21558;-70
2022/07/07 08:35:28;;;;;;;0.88;0.80;;;;;;;21.94;80.54;100144.66;1756181;81;21233;-72
2022/07/07 08:37:54;;;;;;;2.15;0.90;;;;;;;22.06;79.69;100144.59;1756164;81;21092;-73
2022/07/07 08:40:21;;;;;;;3.05;1.15;;;;;;;22.13;78.97;100145.78;1713143;83;21577;-72
2022/07/07 08:42:47;;;;;;;1.37;1.02;;;;;;;22.16;77.61;100144.20;1675122;84;21113;-73
2022/07/07 08:45:14;;;;;;;3.30;1.30;;;;;;;22.22;78.52;100141.50;1682527;85;21583;-71
2022/07/07 08:47:40;;;;;;;3.80;0.80;;;;;;;22.25;77.94;100144.78;1680690;84;21522;-74
2022/07/07 08:50:08;;;;;;;3.92;1.20;;;;;;;22.39;77.10;100143.59;1688959;84;22149;-72
2022/07/07 08:52:40;;;;;;;3.65;1.20;;;;;;;22.54;76.64;100149.45;1690086;84;21064;-72
2022/07/07 08:55:08;;;;;;;3.50;0.90;;;;;;;22.63;75.99;100146.81;1680293;84;21052;-72
2022/07/07 08:57:35;;;;;;;1.65;0.90;;;;;;;22.76;75.09;100151.97;1679608;84;21105;-72
2022/07/07 09:00:02;;;;;;;3.33;1.50;;;;;;;22.83;74.41;100142.38;1678753;84;21641;-73
2022/07/07 09:02:30;;;;;;;5.83;1.07;;;;;;;22.88;73.02;100149.19;1686796;84;21041;-74
2022/07/07 09:04:58;;;;;;;3.37;1.00;;;;;;;22.76;74.35;100157.34;1682236;83;21104;-73
2022/07/07 09:07:27;;;;;;;1.40;1.07;;;;;;;22.80;73.81;100156.09;1646424;85;21100;-72
2022/07/07 09:09:53;;;;;;;1.57;1.10;;;;;;;22.79;74.10;100159.73;1657292;84;21098;-72
2022/07/07 09:12:20;;;;;;;2.90;1.42;;;;;;;22.74;74.73;100156.62;1646821;84;21129;-72
2022/07/07 09:14:54;;;;;;;1.92;1.00;;;;;;;22.77;73.81;100152.31;1696878;84;21144;-71
2022/07/07 09:17:32;;;;;;;2.83;0.95;;;;;;;22.75;74.50;100161.48;1696436;84;21117;-73
2022/07/07 09:20:06;;;;;;;2.67;1.42;;;;;;;22.67;75.16;100159.48;1696906;84;21128;-72
2022/07/07 09:22:49;;;;;;;2.58;1.00;;;;;;;22.76;74.05;100157.34;1696894;84;21092;-71
2022/07/07 09:25:18;;;;;;;1.92;0.90;;;;;;;22.81;74.60;100169.86;1696859;84;21518;-72
2022/07/07 09:28:03;;;;;;;3.70;1.00;;;;;;;22.94;72.59;100168.30;1696398;84;21064;-71
2022/07/07 09:30:40;;;;;;;4.40;1.17;;;;;;;22.94;72.11;100172.33;1696889;84;21034;-71
2022/07/07 09:33:10;;;;;;;1.45;1.00;;;;;;;23.09;71.79;100170.13;1696784;84;22080;-73
2022/07/07 09:38:30;;;;;;;1.85;0.90;;;;;;;23.31;69.16;100174.45;1696770;84;21612;-70
2022/07/07 09:41:05;;;;;;;3.52;0.80;;;;;;;23.39;69.23;100175.09;1696693;84;21046;-72
2022/07/07 09:43:38;;;;;;;6.12;1.22;;;;;;;23.48;67.99;100176.95;1696684;84;21069;-72
2022/07/07 09:46:21;;;;;;;2.33;1.70;;;;;;;23.50;68.30;100173.63;1696940;84;21656;-72
2022/07/07 09:48:54;;;;;;;11.48;1.67;;;;;;;23.66;69.08;100171.75;1696899;84;21010;-73
2022/07/07 09:51:34;;;;;;;2.05;1.10;;;;;;;23.85;67.57;100179.84;1676066;84;21783;-72
2022/07/07 09:54:08;;;;;;;4.35;1.40;;;;;;;24.04;67.31;100181.70;1689227;84;21581;-72
2022/07/07 09:56:39;;;;;;;3.70;1.77;;;;;;;24.17;66.45;100174.67;1697048;84;21086;-72
2022/07/07 09:59:09;;;;;;;3.60;1.40;;;;;;;24.29;64.73;100175.36;1696835;84;21070;-71
2022/07/07 10:01:38;;;;;;;5.27;1.23;;;;;;;24.35;64.91;100170.75;1697329;84;21060;-73
2022/07/07 10:04:09;;;;;;;3.17;0.90;;;;;;;24.38;64.68;100171.80;1696780;84;21635;-71
2022/07/07 10:06:37;;;;;;;;;;;;;;;24.58;62.55;100169.95;1698425;83;21077;-71
2022/07/07 10:09:11;;;;;;;2.55;0.90;;;;;;;24.79;63.16;100178.31;1696816;84;20218;-72
2022/07/07 10:11:46;;;;;;;1.42;0.82;;;;;;;25.07;62.41;100168.41;1697022;84;21113;-72
2022/07/07 10:14:16;;;;;;;2.67;0.93;;;;;;;25.58;61.34;100158.05;1696764;84;21077;-72
2022/07/07 10:16:47;;;;;;;3.98;0.75;;;;;;;26.04;59.88;100151.59;1696940;84;21085;-71
2022/07/07 10:19:17;;;;;;;1.23;0.80;;;;;;;26.10;58.86;100150.97;1696794;84;22180;-71
2022/07/07 10:21:46;;;;;;;1.42;0.70;;;;;;;25.96;58.51;100154.23;1697119;84;21435;-74
2022/07/07 10:24:15;;;;;;;3.20;1.02;;;;;;;25.71;59.29;100156.67;1696301;84;21684;-73
2022/07/07 10:26:51;;;;;;;0.78;0.75;;;;;;;25.59;59.76;100157.91;1696928;84;21061;-71
2022/07/07 10:29:36;;;;;;;3.47;1.10;;;;;;;25.53;59.99;100150.42;1696818;84;21937;-73
2022/07/07 10:32:03;;;;;;;5.00;0.95;;;;;;;25.30;60.01;100152.20;1696739;84;21065;-72
2022/07/07 10:34:33;;;;;;;2.65;1.00;;;;;;;25.38;60.06;100153.32;1696833;84;21033;-74
2022/07/07 10:37:05;;;;;;;10.85;1.60;;;;;;;25.50;59.86;100153.44;1697242;84;21045;-73
2022/07/07 10:39:42;;;;;;;2.42;1.00;;;;;;;25.55;60.51;100149.77;1696942;84;21406;-72
2022/07/07 10:42:20;;;;;;;2.47;1.00;;;;;;;25.80;59.03;100154.91;1671103;84;22085;-71
2022/07/07 10:44:50;;;;;;;1.02;0.75;;;;;;;26.02;59.94;100152.75;1690258;84;21145;-72
2022/07/07 10:47:23;;;;;;;1.20;0.82;;;;;;;26.17;57.20;100152.55;1676225;84;21081;-73
2022/07/07 10:49:51;;;;;;;2.70;0.98;;;;;;;26.30;57.85;100150.80;1668097;86;21125;-72
2022/07/07 10:52:24;;;;;;;3.15;1.05;;;;;;;26.36;58.18;100152.84;1668312;86;21136;-74
2022/07/07 10:55:02;;;;;;;1.47;0.80;;;;;;;26.37;56.41;100157.25;1695655;84;21608;-72
2022/07/07 10:57:43;;;;;;;1.75;0.98;;;;;;;26.37;56.53;100158.61;1696692;84;21109;-74
2022/07/07 11:00:19;;;;;;;1.52;1.00;;;;;;;26.62;56.91;100165.05;1664675;84;21085;-74
2022/07/07 11:02:54;;;;;;;2.22;1.00;;;;;;;27.14;55.78;100156.83;1684334;84;21604;-74
2022/07/07 11:05:28;;;;;;;2.42;1.10;;;;;;;27.66;54.35;100151.76;1673273;84;21069;-74
2022/07/07 11:08:03;;;;;;;4.92;1.00;;;;;;;28.05;53.19;100155.20;1670247;85;21785;-73
2022/07/07 11:10:49;;;;;;;1.32;0.82;;;;;;;28.41;51.59;100148.91;1673168;85;21070;-74
2022/07/07 11:13:25;;;;;;;1.25;0.80;;;;;;;28.69;48.03;100151.24;1681067;85;21105;-74
2022/07/07 11:16:22;;;;;;;1.37;0.80;;;;;;;28.93;43.77;100150.30;1709349;82;21042;-73
2022/07/07 11:18:58;;;;;;;2.00;0.88;;;;;;;29.06;44.10;100156.01;1714972;82;21613;-74
2022/07/07 11:21:46;;;;;;;1.60;0.75;;;;;;;29.18;41.44;100148.87;1713678;82;21105;-74
2022/07/07 11:24:23;;;;;;;3.55;0.93;;;;;;;28.86;42.07;100154.73;1712984;82;21109;-73
2022/07/07 11:26:58;;;;;;;2.33;0.80;;;;;;;28.65;42.10;100156.15;1721537;82;21050;-75
2022/07/07 11:29:25;;;;;;;3.58;0.90;;;;;;;28.69;43.08;100147.66;1692402;82;21064;-74
2022/07/07 11:32:07;;;;;;;4.85;1.07;;;;;;;28.61;43.19;100148.55;1707432;82;21613;-72
2022/07/07 11:34:48;;;;;;;1.47;0.60;;;;;;;28.69;43.05;100143.59;1730981;82;21146;-74